sensor_id;sensor_type;location;lat;lon;timestamp;P1;durP1;ratioP1;P2;durP2;ratioP2
43682;SDS011;29285;52.128;21.060;2023-07-24T00:03:33;5.30;;;4.80;;
43682;SDS011;29285;52.128;21.060;2023-07-24T00:08:34;7.30;;;5.00;;
43682;SDS011;29285;52.128;21.060;2023-07-24T00:13:35;7.70;;;5.40;;
43682;SDS011;29285;52.128;21.060;2023-07-24T00:18:36;9.30;;;4.80;;
43682;SDS011;29285;52.128;21.060;2023-07-24T00:23:37;6.50;;;5.30;;
43682;SDS011;29285;52.128;21.060;2023-07-24T00:28:38;7.50;;;5.80;;
43682;SDS011;29285;52.128;21.060;2023-07-24T00:33:39;6.20;;;5.10;;
43682;SDS011;29285;52.128;21.060;2023-07-24T00:38:40;6.00;;;5.10;;
43682;SDS011;29285;52.128;21.060;2023-07-24T00:43:40;6.00;;;5.10;;
43682;SDS011;29285;52.128;21.060;2023-07-24T00:48:42;5.40;;;4.60;;
43682;SDS011;29285;52.128;21.060;2023-07-24T00:53:43;6.90;;;5.00;;
43682;SDS011;29285;52.128;21.060;2023-07-24T00:58:44;6.20;;;4.70;;
43682;SDS011;29285;52.128;21.060;2023-07-24T01:03:45;7.00;;;4.90;;
43682;SDS011;29285;52.128;21.060;2023-07-24T01:08:46;9.80;;;5.40;;
43682;SDS011;29285;52.128;21.060;2023-07-24T01:13:49;6.40;;;4.80;;
43682;SDS011;29285;52.128;21.060;2023-07-24T01:18:59;7.40;;;4.70;;
43682;SDS011;29285;52.128;21.060;2023-07-24T01:24:22;8.90;;;5.60;;
43682;SDS011;29285;52.128;21.060;2023-07-24T01:29:30;8.60;;;4.90;;
43682;SDS011;29285;52.128;21.060;2023-07-24T01:34:31;7.70;;;4.90;;
43682;SDS011;29285;52.128;21.060;2023-07-24T01:39:33;7.60;;;4.50;;
43682;SDS011;29285;52.128;21.060;2023-07-24T01:44:35;6.10;;;5.00;;
43682;SDS011;29285;52.128;21.060;2023-07-24T01:49:36;6.70;;;4.60;;
43682;SDS011;29285;52.128;21.060;2023-07-24T01:54:37;6.00;;;4.50;;
43682;SDS011;29285;52.128;21.060;2023-07-24T01:59:38;5.30;;;4.10;;
43682;SDS011;29285;52.128;21.060;2023-07-24T02:04:39;8.70;;;4.30;;
43682;SDS011;29285;52.128;21.060;2023-07-24T02:09:40;7.10;;;5.40;;
43682;SDS011;29285;52.128;21.060;2023-07-24T02:14:41;6.40;;;4.40;;
43682;SDS011;29285;52.128;21.060;2023-07-24T02:19:42;6.20;;;4.50;;
43682;SDS011;29285;52.128;21.060;2023-07-24T02:24:43;6.80;;;4.60;;
43682;SDS011;29285;52.128;21.060;2023-07-24T02:29:44;7.10;;;4.80;;
43682;SDS011;29285;52.128;21.060;2023-07-24T02:34:45;4.90;;;4.00;;
43682;SDS011;29285;52.128;21.060;2023-07-24T02:39:46;5.90;;;4.10;;
43682;SDS011;29285;52.128;21.060;2023-07-24T02:44:47;4.90;;;4.30;;
43682;SDS011;29285;52.128;21.060;2023-07-24T02:49:48;7.50;;;4.40;;
43682;SDS011;29285;52.128;21.060;2023-07-24T02:54:49;9.70;;;4.60;;
43682;SDS011;29285;52.128;21.060;2023-07-24T02:59:50;4.40;;;4.00;;
43682;SDS011;29285;52.128;21.060;2023-07-24T03:04:51;5.30;;;3.90;;
43682;SDS011;29285;52.128;21.060;2023-07-24T03:09:52;5.70;;;3.90;;
43682;SDS011;29285;52.128;21.060;2023-07-24T03:14:53;7.50;;;4.20;;
43682;SDS011;29285;52.128;21.060;2023-07-24T03:19:54;7.30;;;3.90;;
43682;SDS011;29285;52.128;21.060;2023-07-24T03:24:56;5.30;;;4.00;;
43682;SDS011;29285;52.128;21.060;2023-07-24T03:29:57;7.40;;;4.10;;
43682;SDS011;29285;52.128;21.060;2023-07-24T03:34:58;6.60;;;4.20;;
43682;SDS011;29285;52.128;21.060;2023-07-24T03:39:59;5.90;;;3.60;;
43682;SDS011;29285;52.128;21.060;2023-07-24T03:45:00;7.40;;;3.80;;
43682;SDS011;29285;52.128;21.060;2023-07-24T03:50:02;7.50;;;4.10;;
43682;SDS011;29285;52.128;21.060;2023-07-24T03:55:03;4.60;;;4.20;;
43682;SDS011;29285;52.128;21.060;2023-07-24T04:00:04;6.40;;;3.60;;
43682;SDS011;29285;52.128;21.060;2023-07-24T04:05:07;5.60;;;3.60;;
43682;SDS011;29285;52.128;21.060;2023-07-24T04:10:08;6.80;;;3.80;;
43682;SDS011;29285;52.128;21.060;2023-07-24T04:15:09;4.90;;;3.60;;
43682;SDS011;29285;52.128;21.060;2023-07-24T04:20:10;6.00;;;3.60;;
43682;SDS011;29285;52.128;21.060;2023-07-24T04:25:12;4.30;;;3.70;;
43682;SDS011;29285;52.128;21.060;2023-07-24T04:30:12;7.40;;;4.10;;
43682;SDS011;29285;52.128;21.060;2023-07-24T04:35:15;5.00;;;4.10;;
43682;SDS011;29285;52.128;21.060;2023-07-24T04:40:16;4.90;;;3.80;;
43682;SDS011;29285;52.128;21.060;2023-07-24T04:45:16;4.10;;;3.70;;
43682;SDS011;29285;52.128;21.060;2023-07-24T04:50:17;5.80;;;4.00;;
43682;SDS011;29285;52.128;21.060;2023-07-24T04:55:18;5.30;;;4.20;;
43682;SDS011;29285;52.128;21.060;2023-07-24T05:00:19;5.20;;;4.40;;
43682;SDS011;29285;52.128;21.060;2023-07-24T05:05:20;8.70;;;4.50;;
43682;SDS011;29285;52.128;21.060;2023-07-24T05:10:21;6.00;;;3.20;;
43682;SDS011;29285;52.128;21.060;2023-07-24T05:15:22;6.30;;;3.70;;
43682;SDS011;29285;52.128;21.060;2023-07-24T05:20:23;8.30;;;3.50;;
43682;SDS011;29285;52.128;21.060;2023-07-24T05:25:24;8.50;;;3.80;;
43682;SDS011;29285;52.128;21.060;2023-07-24T05:30:25;6.60;;;4.00;;
43682;SDS011;29285;52.128;21.060;2023-07-24T05:35:26;6.60;;;3.40;;
43682;SDS011;29285;52.128;21.060;2023-07-24T05:40:28;4.30;;;3.90;;
43682;SDS011;29285;52.128;21.060;2023-07-24T05:45:29;5.20;;;3.60;;
43682;SDS011;29285;52.128;21.060;2023-07-24T05:50:30;6.90;;;3.70;;
43682;SDS011;29285;52.128;21.060;2023-07-24T05:55:31;11.40;;;4.20;;
43682;SDS011;29285;52.128;21.060;2023-07-24T06:00:32;7.70;;;3.40;;
43682;SDS011;29285;52.128;21.060;2023-07-24T06:05:33;4.40;;;3.30;;
43682;SDS011;29285;52.128;21.060;2023-07-24T06:10:34;6.50;;;3.90;;
43682;SDS011;29285;52.128;21.060;2023-07-24T06:15:35;5.40;;;3.30;;
43682;SDS011;29285;52.128;21.060;2023-07-24T06:20:36;4.70;;;2.90;;
43682;SDS011;29285;52.128;21.060;2023-07-24T06:25:37;6.40;;;3.20;;
43682;SDS011;29285;52.128;21.060;2023-07-24T06:30:38;4.60;;;2.90;;
43682;SDS011;29285;52.128;21.060;2023-07-24T06:35:39;3.50;;;2.80;;
43682;SDS011;29285;52.128;21.060;2023-07-24T06:40:40;6.10;;;3.40;;
43682;SDS011;29285;52.128;21.060;2023-07-24T06:45:41;5.00;;;2.90;;
43682;SDS011;29285;52.128;21.060;2023-07-24T06:50:42;4.10;;;2.90;;
43682;SDS011;29285;52.128;21.060;2023-07-24T06:55:43;4.90;;;3.10;;
43682;SDS011;29285;52.128;21.060;2023-07-24T07:00:44;7.00;;;3.20;;
43682;SDS011;29285;52.128;21.060;2023-07-24T07:05:45;4.70;;;2.70;;
43682;SDS011;29285;52.128;21.060;2023-07-24T07:10:46;5.70;;;2.70;;
43682;SDS011;29285;52.128;21.060;2023-07-24T07:15:48;4.90;;;3.10;;
43682;SDS011;29285;52.128;21.060;2023-07-24T07:20:50;3.90;;;2.70;;
43682;SDS011;29285;52.128;21.060;2023-07-24T07:25:52;7.80;;;2.80;;
43682;SDS011;29285;52.128;21.060;2023-07-24T07:30:53;9.80;;;3.50;;
43682;SDS011;29285;52.128;21.060;2023-07-24T07:35:55;3.70;;;2.30;;
43682;SDS011;29285;52.128;21.060;2023-07-24T07:40:56;16.90;;;2.90;;
43682;SDS011;29285;52.128;21.060;2023-07-24T07:45:57;6.50;;;2.50;;
43682;SDS011;29285;52.128;21.060;2023-07-24T07:50:59;6.80;;;2.40;;
43682;SDS011;29285;52.128;21.060;2023-07-24T07:56:00;29.60;;;3.00;;
43682;SDS011;29285;52.128;21.060;2023-07-24T08:01:05;4.20;;;2.60;;
43682;SDS011;29285;52.128;21.060;2023-07-24T08:06:06;5.70;;;2.40;;
43682;SDS011;29285;52.128;21.060;2023-07-24T08:11:07;8.10;;;3.00;;
43682;SDS011;29285;52.128;21.060;2023-07-24T08:16:14;4.50;;;2.20;;
43682;SDS011;29285;52.128;21.060;2023-07-24T08:21:19;2.00;;;1.70;;
43682;SDS011;29285;52.128;21.060;2023-07-24T08:26:19;6.30;;;2.40;;
43682;SDS011;29285;52.128;21.060;2023-07-24T08:31:20;4.20;;;2.20;;
43682;SDS011;29285;52.128;21.060;2023-07-24T08:36:21;3.30;;;2.50;;
43682;SDS011;29285;52.128;21.060;2023-07-24T08:41:22;3.60;;;2.70;;
43682;SDS011;29285;52.128;21.060;2023-07-24T08:46:23;2.80;;;2.40;;
43682;SDS011;29285;52.128;21.060;2023-07-24T08:51:25;4.30;;;2.00;;
43682;SDS011;29285;52.128;21.060;2023-07-24T08:56:26;5.80;;;2.20;;
43682;SDS011;29285;52.128;21.060;2023-07-24T09:01:27;5.30;;;2.20;;
43682;SDS011;29285;52.128;21.060;2023-07-24T09:06:28;2.50;;;2.30;;
43682;SDS011;29285;52.128;21.060;2023-07-24T09:11:29;3.00;;;2.70;;
43682;SDS011;29285;52.128;21.060;2023-07-24T09:16:30;2.70;;;2.40;;
43682;SDS011;29285;52.128;21.060;2023-07-24T09:21:31;4.10;;;2.00;;
43682;SDS011;29285;52.128;21.060;2023-07-24T09:26:33;4.30;;;2.60;;
43682;SDS011;29285;52.128;21.060;2023-07-24T09:31:35;2.80;;;2.50;;
43682;SDS011;29285;52.128;21.060;2023-07-24T09:36:37;2.60;;;2.10;;
43682;SDS011;29285;52.128;21.060;2023-07-24T09:41:39;3.60;;;2.80;;
43682;SDS011;29285;52.128;21.060;2023-07-24T09:46:41;5.40;;;2.60;;
43682;SDS011;29285;52.128;21.060;2023-07-24T09:51:44;3.70;;;3.00;;
43682;SDS011;29285;52.128;21.060;2023-07-24T09:56:49;4.90;;;3.10;;
43682;SDS011;29285;52.128;21.060;2023-07-24T10:01:52;5.10;;;2.90;;
43682;SDS011;29285;52.128;21.060;2023-07-24T10:06:53;4.40;;;2.60;;
43682;SDS011;29285;52.128;21.060;2023-07-24T10:11:54;5.70;;;2.30;;
43682;SDS011;29285;52.128;21.060;2023-07-24T10:16:56;4.90;;;3.00;;
43682;SDS011;29285;52.128;21.060;2023-07-24T10:21:58;4.60;;;3.20;;
43682;SDS011;29285;52.128;21.060;2023-07-24T10:26:58;4.60;;;3.70;;
43682;SDS011;29285;52.128;21.060;2023-07-24T10:32:00;6.50;;;3.60;;
43682;SDS011;29285;52.128;21.060;2023-07-24T10:37:07;6.20;;;3.30;;
43682;SDS011;29285;52.128;21.060;2023-07-24T10:42:12;5.90;;;3.80;;
43682;SDS011;29285;52.128;21.060;2023-07-24T10:47:13;3.90;;;3.30;;
43682;SDS011;29285;52.128;21.060;2023-07-24T10:52:14;7.40;;;3.30;;
43682;SDS011;29285;52.128;21.060;2023-07-24T10:57:15;3.50;;;3.20;;
43682;SDS011;29285;52.128;21.060;2023-07-24T11:02:16;5.20;;;3.30;;
43682;SDS011;29285;52.128;21.060;2023-07-24T11:07:18;6.00;;;3.40;;
43682;SDS011;29285;52.128;21.060;2023-07-24T11:12:19;4.20;;;3.30;;
43682;SDS011;29285;52.128;21.060;2023-07-24T11:17:20;5.40;;;3.70;;
43682;SDS011;29285;52.128;21.060;2023-07-24T11:22:21;4.40;;;3.00;;
43682;SDS011;29285;52.128;21.060;2023-07-24T11:27:24;3.80;;;3.00;;
43682;SDS011;29285;52.128;21.060;2023-07-24T11:32:26;5.80;;;3.60;;
43682;SDS011;29285;52.128;21.060;2023-07-24T11:37:27;3.60;;;3.20;;
43682;SDS011;29285;52.128;21.060;2023-07-24T11:42:28;7.00;;;3.50;;
43682;SDS011;29285;52.128;21.060;2023-07-24T11:47:29;4.90;;;3.30;;
43682;SDS011;29285;52.128;21.060;2023-07-24T11:52:46;3.30;;;3.00;;
43682;SDS011;29285;52.128;21.060;2023-07-24T11:57:55;8.00;;;4.30;;
43682;SDS011;29285;52.128;21.060;2023-07-24T12:03:00;3.90;;;3.50;;
43682;SDS011;29285;52.128;21.060;2023-07-24T12:08:04;5.40;;;3.00;;
43682;SDS011;29285;52.128;21.060;2023-07-24T12:13:06;7.40;;;3.30;;
43682;SDS011;29285;52.128;21.060;2023-07-24T12:18:07;3.30;;;2.50;;
43682;SDS011;29285;52.128;21.060;2023-07-24T12:23:09;4.70;;;3.00;;
43682;SDS011;29285;52.128;21.060;2023-07-24T12:28:10;4.40;;;3.00;;
43682;SDS011;29285;52.128;21.060;2023-07-24T12:33:11;3.40;;;2.70;;
43682;SDS011;29285;52.128;21.060;2023-07-24T12:38:12;3.30;;;3.00;;
43682;SDS011;29285;52.128;21.060;2023-07-24T12:43:14;3.80;;;3.20;;
43682;SDS011;29285;52.128;21.060;2023-07-24T12:48:16;5.00;;;2.90;;
43682;SDS011;29285;52.128;21.060;2023-07-24T12:53:18;3.40;;;3.10;;
43682;SDS011;29285;52.128;21.060;2023-07-24T12:58:18;17.00;;;3.10;;
43682;SDS011;29285;52.128;21.060;2023-07-24T13:03:20;6.40;;;3.20;;
43682;SDS011;29285;52.128;21.060;2023-07-24T13:08:22;6.40;;;3.30;;
43682;SDS011;29285;52.128;21.060;2023-07-24T13:13:24;4.20;;;3.30;;
43682;SDS011;29285;52.128;21.060;2023-07-24T13:18:26;3.60;;;3.30;;
43682;SDS011;29285;52.128;21.060;2023-07-24T13:23:27;3.90;;;3.50;;
43682;SDS011;29285;52.128;21.060;2023-07-24T13:28:28;6.30;;;3.30;;
43682;SDS011;29285;52.128;21.060;2023-07-24T13:33:29;3.30;;;3.00;;
43682;SDS011;29285;52.128;21.060;2023-07-24T13:38:30;4.60;;;3.90;;
43682;SDS011;29285;52.128;21.060;2023-07-24T13:43:32;4.80;;;3.40;;
43682;SDS011;29285;52.128;21.060;2023-07-24T13:48:33;5.50;;;3.60;;
43682;SDS011;29285;52.128;21.060;2023-07-24T13:53:34;4.80;;;3.70;;
43682;SDS011;29285;52.128;21.060;2023-07-24T13:58:35;3.50;;;3.20;;
43682;SDS011;29285;52.128;21.060;2023-07-24T14:03:36;3.20;;;2.90;;
43682;SDS011;29285;52.128;21.060;2023-07-24T14:08:37;5.70;;;3.80;;
43682;SDS011;29285;52.128;21.060;2023-07-24T14:13:38;6.20;;;3.80;;
43682;SDS011;29285;52.128;21.060;2023-07-24T14:18:39;7.30;;;3.40;;
43682;SDS011;29285;52.128;21.060;2023-07-24T14:23:40;3.90;;;3.50;;
43682;SDS011;29285;52.128;21.060;2023-07-24T14:28:41;4.50;;;3.50;;
43682;SDS011;29285;52.128;21.060;2023-07-24T14:33:42;5.90;;;3.60;;
43682;SDS011;29285;52.128;21.060;2023-07-24T14:38:43;3.80;;;3.50;;
43682;SDS011;29285;52.128;21.060;2023-07-24T14:43:44;4.60;;;4.20;;
43682;SDS011;29285;52.128;21.060;2023-07-24T14:48:46;8.00;;;3.50;;
43682;SDS011;29285;52.128;21.060;2023-07-24T14:53:47;5.20;;;4.00;;
43682;SDS011;29285;52.128;21.060;2023-07-24T14:58:48;4.90;;;4.10;;
43682;SDS011;29285;52.128;21.060;2023-07-24T15:03:49;4.50;;;4.10;;
43682;SDS011;29285;52.128;21.060;2023-07-24T15:08:51;6.40;;;4.00;;
43682;SDS011;29285;52.128;21.060;2023-07-24T15:13:54;4.20;;;3.80;;
43682;SDS011;29285;52.128;21.060;2023-07-24T15:18:58;8.20;;;4.50;;
43682;SDS011;29285;52.128;21.060;2023-07-24T15:23:59;6.00;;;3.90;;
43682;SDS011;29285;52.128;21.060;2023-07-24T15:29:00;5.70;;;4.30;;
43682;SDS011;29285;52.128;21.060;2023-07-24T15:34:01;5.80;;;4.20;;
43682;SDS011;29285;52.128;21.060;2023-07-24T15:39:03;9.40;;;5.10;;
43682;SDS011;29285;52.128;21.060;2023-07-24T15:44:05;5.50;;;4.70;;
43682;SDS011;29285;52.128;21.060;2023-07-24T15:49:07;7.00;;;4.50;;
43682;SDS011;29285;52.128;21.060;2023-07-24T15:54:08;9.30;;;5.20;;
43682;SDS011;29285;52.128;21.060;2023-07-24T15:59:10;5.90;;;5.30;;
43682;SDS011;29285;52.128;21.060;2023-07-24T16:04:11;4.80;;;4.30;;
43682;SDS011;29285;52.128;21.060;2023-07-24T16:09:13;8.40;;;4.70;;
43682;SDS011;29285;52.128;21.060;2023-07-24T16:14:14;6.20;;;4.50;;
43682;SDS011;29285;52.128;21.060;2023-07-24T16:19:19;4.90;;;4.20;;
43682;SDS011;29285;52.128;21.060;2023-07-24T16:24:21;6.40;;;4.50;;
43682;SDS011;29285;52.128;21.060;2023-07-24T16:29:22;11.30;;;4.60;;
43682;SDS011;29285;52.128;21.060;2023-07-24T16:34:24;6.70;;;4.80;;
43682;SDS011;29285;52.128;21.060;2023-07-24T16:39:25;7.80;;;5.10;;
43682;SDS011;29285;52.128;21.060;2023-07-24T16:44:27;6.60;;;4.90;;
43682;SDS011;29285;52.128;21.060;2023-07-24T16:49:28;5.80;;;4.90;;
43682;SDS011;29285;52.128;21.060;2023-07-24T16:54:29;7.60;;;5.30;;
43682;SDS011;29285;52.128;21.060;2023-07-24T16:59:30;7.30;;;5.10;;
43682;SDS011;29285;52.128;21.060;2023-07-24T17:04:32;16.80;;;6.60;;
43682;SDS011;29285;52.128;21.060;2023-07-24T17:09:33;10.50;;;6.40;;
43682;SDS011;29285;52.128;21.060;2023-07-24T17:14:34;10.60;;;7.20;;
43682;SDS011;29285;52.128;21.060;2023-07-24T17:19:35;9.60;;;7.40;;
43682;SDS011;29285;52.128;21.060;2023-07-24T17:24:36;6.90;;;5.90;;
43682;SDS011;29285;52.128;21.060;2023-07-24T17:29:37;6.40;;;5.50;;
43682;SDS011;29285;52.128;21.060;2023-07-24T17:34:39;9.10;;;6.50;;
43682;SDS011;29285;52.128;21.060;2023-07-24T17:39:41;9.50;;;7.30;;
43682;SDS011;29285;52.128;21.060;2023-07-24T17:44:43;9.90;;;6.70;;
43682;SDS011;29285;52.128;21.060;2023-07-24T17:49:44;11.10;;;6.10;;
43682;SDS011;29285;52.128;21.060;2023-07-24T17:54:46;11.60;;;6.70;;
43682;SDS011;29285;52.128;21.060;2023-07-24T17:59:48;6.90;;;5.60;;
43682;SDS011;29285;52.128;21.060;2023-07-24T18:04:50;8.10;;;6.60;;
43682;SDS011;29285;52.128;21.060;2023-07-24T18:09:51;10.20;;;6.60;;
43682;SDS011;29285;52.128;21.060;2023-07-24T18:14:52;10.20;;;6.80;;
43682;SDS011;29285;52.128;21.060;2023-07-24T18:19:53;12.30;;;7.10;;
43682;SDS011;29285;52.128;21.060;2023-07-24T18:24:54;11.60;;;6.00;;
43682;SDS011;29285;52.128;21.060;2023-07-24T18:29:55;10.60;;;7.30;;
43682;SDS011;29285;52.128;21.060;2023-07-24T18:34:57;7.80;;;6.70;;
43682;SDS011;29285;52.128;21.060;2023-07-24T18:39:58;9.20;;;6.90;;
43682;SDS011;29285;52.128;21.060;2023-07-24T18:44:59;11.90;;;6.90;;
43682;SDS011;29285;52.128;21.060;2023-07-24T18:50:00;10.30;;;7.20;;
43682;SDS011;29285;52.128;21.060;2023-07-24T18:55:02;9.90;;;7.30;;
43682;SDS011;29285;52.128;21.060;2023-07-24T19:00:04;10.80;;;7.70;;
43682;SDS011;29285;52.128;21.060;2023-07-24T19:05:06;9.50;;;7.00;;
43682;SDS011;29285;52.128;21.060;2023-07-24T19:10:08;11.70;;;7.10;;
43682;SDS011;29285;52.128;21.060;2023-07-24T19:15:11;9.60;;;6.10;;
43682;SDS011;29285;52.128;21.060;2023-07-24T19:20:12;9.60;;;6.00;;
43682;SDS011;29285;52.128;21.060;2023-07-24T19:25:14;7.00;;;5.80;;
43682;SDS011;29285;52.128;21.060;2023-07-24T19:30:15;8.30;;;6.60;;
43682;SDS011;29285;52.128;21.060;2023-07-24T19:35:16;6.90;;;6.00;;
43682;SDS011;29285;52.128;21.060;2023-07-24T19:40:19;6.70;;;5.40;;
43682;SDS011;29285;52.128;21.060;2023-07-24T19:45:20;9.60;;;5.90;;
43682;SDS011;29285;52.128;21.060;2023-07-24T19:50:21;6.50;;;5.00;;
43682;SDS011;29285;52.128;21.060;2023-07-24T19:55:23;5.60;;;4.70;;
43682;SDS011;29285;52.128;21.060;2023-07-24T20:00:24;7.00;;;5.60;;
43682;SDS011;29285;52.128;21.060;2023-07-24T20:05:28;5.60;;;4.80;;
43682;SDS011;29285;52.128;21.060;2023-07-24T20:10:29;6.60;;;5.50;;
43682;SDS011;29285;52.128;21.060;2023-07-24T20:15:30;8.90;;;6.20;;
43682;SDS011;29285;52.128;21.060;2023-07-24T20:20:31;7.00;;;5.90;;
43682;SDS011;29285;52.128;21.060;2023-07-24T20:25:33;9.30;;;7.50;;
43682;SDS011;29285;52.128;21.060;2023-07-24T20:30:35;9.40;;;7.00;;
43682;SDS011;29285;52.128;21.060;2023-07-24T20:35:36;8.90;;;6.90;;
43682;SDS011;29285;52.128;21.060;2023-07-24T20:40:38;10.20;;;6.90;;
43682;SDS011;29285;52.128;21.060;2023-07-24T20:45:39;8.00;;;6.40;;
43682;SDS011;29285;52.128;21.060;2023-07-24T20:50:40;7.10;;;6.30;;
43682;SDS011;29285;52.128;21.060;2023-07-24T20:55:42;8.10;;;6.20;;
43682;SDS011;29285;52.128;21.060;2023-07-24T21:00:43;8.50;;;6.20;;
43682;SDS011;29285;52.128;21.060;2023-07-24T21:05:45;9.00;;;6.40;;
43682;SDS011;29285;52.128;21.060;2023-07-24T21:10:46;9.20;;;6.40;;
43682;SDS011;29285;52.128;21.060;2023-07-24T21:15:47;6.90;;;5.90;;
43682;SDS011;29285;52.128;21.060;2023-07-24T21:20:50;9.70;;;6.30;;
43682;SDS011;29285;52.128;21.060;2023-07-24T21:25:52;9.10;;;7.00;;
43682;SDS011;29285;52.128;21.060;2023-07-24T21:30:54;8.10;;;6.60;;
43682;SDS011;29285;52.128;21.060;2023-07-24T21:35:59;7.70;;;6.40;;
43682;SDS011;29285;52.128;21.060;2023-07-24T21:41:00;7.10;;;5.90;;
43682;SDS011;29285;52.128;21.060;2023-07-24T21:46:01;11.80;;;7.30;;
43682;SDS011;29285;52.128;21.060;2023-07-24T21:51:02;9.00;;;6.80;;
43682;SDS011;29285;52.128;21.060;2023-07-24T21:56:04;9.70;;;6.90;;
43682;SDS011;29285;52.128;21.060;2023-07-24T22:01:05;9.80;;;6.80;;
43682;SDS011;29285;52.128;21.060;2023-07-24T22:06:06;9.30;;;5.80;;
43682;SDS011;29285;52.128;21.060;2023-07-24T22:11:10;7.70;;;6.00;;
43682;SDS011;29285;52.128;21.060;2023-07-24T22:16:13;10.80;;;7.20;;
43682;SDS011;29285;52.128;21.060;2023-07-24T22:21:14;10.90;;;7.40;;
43682;SDS011;29285;52.128;21.060;2023-07-24T22:26:15;9.00;;;7.50;;
43682;SDS011;29285;52.128;21.060;2023-07-24T22:31:16;9.10;;;7.50;;
43682;SDS011;29285;52.128;21.060;2023-07-24T22:36:17;9.40;;;7.00;;
43682;SDS011;29285;52.128;21.060;2023-07-24T22:41:18;8.80;;;7.40;;
43682;SDS011;29285;52.128;21.060;2023-07-24T22:46:19;9.70;;;7.60;;
43682;SDS011;29285;52.128;21.060;2023-07-24T22:51:20;8.80;;;7.50;;
43682;SDS011;29285;52.128;21.060;2023-07-24T22:56:21;9.80;;;7.60;;
43682;SDS011;29285;52.128;21.060;2023-07-24T23:01:25;7.40;;;6.40;;
43682;SDS011;29285;52.128;21.060;2023-07-24T23:06:27;12.40;;;7.10;;
43682;SDS011;29285;52.128;21.060;2023-07-24T23:11:28;10.70;;;7.70;;
43682;SDS011;29285;52.128;21.060;2023-07-24T23:16:29;8.70;;;6.90;;
43682;SDS011;29285;52.128;21.060;2023-07-24T23:21:30;10.80;;;8.00;;
43682;SDS011;29285;52.128;21.060;2023-07-24T23:26:32;8.40;;;7.40;;
43682;SDS011;29285;52.128;21.060;2023-07-24T23:31:33;11.00;;;7.90;;
43682;SDS011;29285;52.128;21.060;2023-07-24T23:36:34;11.90;;;6.50;;
43682;SDS011;29285;52.128;21.060;2023-07-24T23:41:35;10.30;;;7.50;;
43682;SDS011;29285;52.128;21.060;2023-07-24T23:46:37;8.10;;;6.90;;
43682;SDS011;29285;52.128;21.060;2023-07-24T23:51:40;7.80;;;7.00;;
43682;SDS011;29285;52.128;21.060;2023-07-24T23:56:41;8.50;;;7.30;;
